createdAt,value
2023-12-12T00:02:00.703Z,9.75
2023-12-12T00:04:27.581Z,8.97
2023-12-12T00:06:54.362Z,9.90
2023-12-12T00:09:21.176Z,10.43
2023-12-12T00:11:47.941Z,10.05
2023-12-12T00:14:14.695Z,10.38
2023-12-12T00:16:41.467Z,9.83
2023-12-12T00:19:08.391Z,9.25
2023-12-12T00:21:35.228Z,8.43
2023-12-12T00:24:02.007Z,8.68
2023-12-12T00:26:28.739Z,7.43
2023-12-12T00:28:55.567Z,7.40
2023-12-12T00:31:22.361Z,8.18
2023-12-12T00:33:49.257Z,8.18
2023-12-12T00:36:16.250Z,6.85
2023-12-12T00:38:44.641Z,7.57
2023-12-12T00:41:11.459Z,7.03
2023-12-12T00:43:41.507Z,7.07
2023-12-12T00:46:08.597Z,7.43
2023-12-12T00:48:35.541Z,6.78
2023-12-12T00:51:02.391Z,7.65
2023-12-12T00:53:29.256Z,7.63
2023-12-12T00:55:56.018Z,7.40
2023-12-12T00:58:22.930Z,8.43
2023-12-12T01:00:49.802Z,8.27
2023-12-12T01:03:16.637Z,7.55
2023-12-12T01:05:43.531Z,7.47
2023-12-12T01:08:10.299Z,7.40
2023-12-12T01:10:37.130Z,7.10
2023-12-12T01:13:03.955Z,7.43
2023-12-12T01:15:31.135Z,7.72
2023-12-12T01:17:57.997Z,6.40
2023-12-12T01:20:24.763Z,6.07
2023-12-12T01:22:51.523Z,6.35
2023-12-12T01:25:18.336Z,6.45
2023-12-12T01:27:45.111Z,6.95
2023-12-12T01:30:12.376Z,5.90
2023-12-12T01:32:39.185Z,5.82
2023-12-12T01:35:06.496Z,5.70
2023-12-12T01:37:34.014Z,4.93
2023-12-12T01:40:01.213Z,6.07
2023-12-12T01:42:28.040Z,5.40
2023-12-12T01:44:54.920Z,5.78
2023-12-12T01:47:21.852Z,6.22
2023-12-12T01:49:49.135Z,5.57
2023-12-12T01:52:16.775Z,6.85
2023-12-12T01:54:47.350Z,5.60
2023-12-12T01:57:17.362Z,5.90
2023-12-12T01:59:46.807Z,6.03
2023-12-12T02:02:15.850Z,5.85
2023-12-12T02:04:42.928Z,5.60
2023-12-12T02:07:10.898Z,5.10
2023-12-12T02:09:37.915Z,5.07
2023-12-12T02:12:05.368Z,4.53
2023-12-12T02:14:32.247Z,5.60
2023-12-12T02:16:59.057Z,5.53
2023-12-12T02:19:26.059Z,4.47
2023-12-12T02:21:52.922Z,4.82
2023-12-12T02:24:19.670Z,4.55
2023-12-12T02:26:46.669Z,4.93
2023-12-12T02:29:13.723Z,5.53
2023-12-12T02:31:40.646Z,4.70
2023-12-12T02:34:07.675Z,5.72
2023-12-12T02:36:34.484Z,4.85
2023-12-12T02:39:01.633Z,5.75
2023-12-12T02:41:28.634Z,4.95
2023-12-12T02:43:55.374Z,5.27
2023-12-12T02:46:22.135Z,6.95
2023-12-12T02:48:48.980Z,5.72
2023-12-12T02:51:15.793Z,5.88
2023-12-12T02:53:42.691Z,4.93
2023-12-12T02:56:09.598Z,5.23
2023-12-12T02:58:36.339Z,5.40
2023-12-12T03:01:03.245Z,5.75
2023-12-12T03:03:30.481Z,5.85
2023-12-12T03:05:57.339Z,6.13
2023-12-12T03:08:24.122Z,6.17
2023-12-12T03:10:50.916Z,5.95
2023-12-12T03:13:17.684Z,6.65
2023-12-12T03:15:44.427Z,6.03
2023-12-12T03:18:11.366Z,7.07
2023-12-12T03:20:38.134Z,5.63
2023-12-12T03:23:04.872Z,6.20
2023-12-12T03:25:31.834Z,6.20
2023-12-12T03:27:58.655Z,6.07
2023-12-12T03:30:25.396Z,6.35
2023-12-12T03:32:52.324Z,6.20
2023-12-12T03:35:19.133Z,5.93
2023-12-12T03:37:45.943Z,6.43
2023-12-12T03:40:13.011Z,5.93
2023-12-12T03:42:39.799Z,8.02
2023-12-12T03:45:07.073Z,6.37
2023-12-12T03:47:34.123Z,6.97
2023-12-12T03:50:01.239Z,6.78
2023-12-12T03:52:28.119Z,6.03
2023-12-12T03:54:54.916Z,5.57
2023-12-12T03:57:21.637Z,5.47
2023-12-12T03:59:48.403Z,5.35
2023-12-12T04:02:15.223Z,4.57
2023-12-12T04:04:41.999Z,6.00
2023-12-12T04:07:08.751Z,6.00
2023-12-12T04:09:35.824Z,4.93
2023-12-12T04:12:02.588Z,6.00
2023-12-12T04:14:29.346Z,4.78
2023-12-12T04:16:56.140Z,5.22
2023-12-12T04:19:22.933Z,5.82
2023-12-12T04:21:49.736Z,5.87
2023-12-12T04:24:16.672Z,5.82
2023-12-12T04:26:43.424Z,5.78
2023-12-12T04:29:10.236Z,5.55
2023-12-12T04:31:37.203Z,5.70
2023-12-12T04:34:04.169Z,6.77
2023-12-12T04:36:31.007Z,5.50
2023-12-12T04:38:57.865Z,6.75
2023-12-12T04:41:24.591Z,6.00
2023-12-12T04:43:51.307Z,6.22
2023-12-12T04:46:21.647Z,7.20
2023-12-12T04:48:48.703Z,5.90
2023-12-12T04:51:15.613Z,6.45
2023-12-12T04:53:42.375Z,5.90
2023-12-12T04:56:09.324Z,6.93
2023-12-12T04:58:36.104Z,5.63
2023-12-12T05:01:03.005Z,5.70
2023-12-12T05:03:29.858Z,7.10
2023-12-12T05:05:56.750Z,7.28
2023-12-12T05:08:23.553Z,6.85
2023-12-12T05:10:50.277Z,6.97
2023-12-12T05:13:17.076Z,7.82
2023-12-12T05:15:44.250Z,6.80
2023-12-12T05:18:11.293Z,6.13
2023-12-12T05:20:38.161Z,5.97
2023-12-12T05:23:04.932Z,6.97
2023-12-12T05:25:31.697Z,6.85
2023-12-12T05:27:58.474Z,5.80
2023-12-12T05:30:25.297Z,5.57
2023-12-12T05:32:52.216Z,6.72
2023-12-12T05:35:19.055Z,4.10
2023-12-12T05:37:45.882Z,4.93
2023-12-12T05:40:12.767Z,5.30
2023-12-12T05:42:39.507Z,4.75
2023-12-12T05:45:06.998Z,4.95
2023-12-12T05:47:34.276Z,5.10
2023-12-12T05:50:01.447Z,6.15
2023-12-12T05:52:28.324Z,4.95
2023-12-12T05:54:55.177Z,5.47
2023-12-12T05:57:22.081Z,5.60
2023-12-12T05:59:50.353Z,4.23
2023-12-12T06:02:17.073Z,4.68
2023-12-12T06:04:43.987Z,5.57
2023-12-12T06:07:10.915Z,5.22
2023-12-12T06:09:37.727Z,5.72
2023-12-12T06:12:04.702Z,5.13
2023-12-12T06:14:31.496Z,5.63
2023-12-12T06:16:58.219Z,7.18
2023-12-12T06:19:25.015Z,5.72
2023-12-12T06:21:52.288Z,6.10
2023-12-12T06:24:19.048Z,6.27
2023-12-12T06:26:46.748Z,5.85
2023-12-12T06:29:16.577Z,5.22
2023-12-12T06:31:43.453Z,5.80
2023-12-12T06:34:10.640Z,5.88
2023-12-12T06:36:39.220Z,5.90
2023-12-12T06:39:06.013Z,5.50
2023-12-12T06:41:32.807Z,4.93
2023-12-12T06:43:59.612Z,4.55
2023-12-12T06:46:26.387Z,5.65
2023-12-12T06:48:53.210Z,5.73
2023-12-12T06:51:19.996Z,5.00
2023-12-12T06:53:46.731Z,5.82
2023-12-12T06:56:13.611Z,4.50
2023-12-12T06:58:40.445Z,3.95
2023-12-12T07:01:08.589Z,4.33
2023-12-12T07:03:36.124Z,4.43
2023-12-12T07:06:03.496Z,3.55
2023-12-12T07:08:30.283Z,3.60
2023-12-12T07:10:57.072Z,3.63
2023-12-12T07:16:08.222Z,4.78
2023-12-12T07:18:35.139Z,5.05
2023-12-12T07:21:01.960Z,5.03
2023-12-12T07:23:28.862Z,5.03
2023-12-12T07:25:55.843Z,4.10
2023-12-12T07:28:22.961Z,4.50
2023-12-12T07:30:49.818Z,3.72
2023-12-12T07:33:17.017Z,2.53
2023-12-12T07:35:43.868Z,4.80
2023-12-12T07:38:10.660Z,4.03
2023-12-12T07:40:37.524Z,4.30
2023-12-12T07:43:04.453Z,3.45
2023-12-12T07:45:31.311Z,3.70
2023-12-12T07:47:58.279Z,3.40
2023-12-12T07:50:25.135Z,4.27
2023-12-12T07:52:51.912Z,5.45
2023-12-12T07:55:18.799Z,4.47
2023-12-12T07:57:45.600Z,4.82
2023-12-12T08:00:13.202Z,4.72
2023-12-12T08:02:40.043Z,5.23
2023-12-12T08:05:07.044Z,4.72
2023-12-12T08:07:34.324Z,3.53
2023-12-12T08:10:01.408Z,4.15
2023-12-12T08:12:28.219Z,4.10
2023-12-12T08:14:55.051Z,3.43
2023-12-12T08:17:22.134Z,3.17
2023-12-12T08:19:49.131Z,4.43
2023-12-12T08:22:16.096Z,5.07
2023-12-12T08:24:42.986Z,4.22
2023-12-12T08:27:09.791Z,4.70
2023-12-12T08:29:36.561Z,3.08
2023-12-12T08:32:03.580Z,4.88
2023-12-12T08:34:30.377Z,4.45
2023-12-12T08:36:57.188Z,4.45
2023-12-12T08:39:24.149Z,4.20
2023-12-12T08:41:50.931Z,4.55
2023-12-12T08:44:17.824Z,3.97
2023-12-12T08:46:45.360Z,4.43
2023-12-12T08:49:12.622Z,4.80
2023-12-12T08:51:39.543Z,4.17
2023-12-12T08:54:06.404Z,4.13
2023-12-12T08:56:33.203Z,3.72
2023-12-12T08:59:00.001Z,3.95
2023-12-12T09:01:26.858Z,4.40
2023-12-12T09:03:53.714Z,3.97
2023-12-12T09:06:20.640Z,3.10
2023-12-12T09:08:47.539Z,3.42
2023-12-12T09:11:15.327Z,3.80
2023-12-12T09:13:46.385Z,3.88
2023-12-12T09:16:13.328Z,3.87
2023-12-12T09:18:40.313Z,3.78
2023-12-12T09:21:07.316Z,3.92
2023-12-12T09:23:34.333Z,4.30
2023-12-12T09:26:01.104Z,3.65
2023-12-12T09:28:27.911Z,3.43
2023-12-12T09:30:55.128Z,3.45
2023-12-12T09:33:22.086Z,4.18
2023-12-12T09:35:48.946Z,4.32
2023-12-12T09:38:15.766Z,3.63
2023-12-12T09:40:42.690Z,4.07
2023-12-12T09:43:12.380Z,2.67
2023-12-12T09:45:45.883Z,3.42
2023-12-12T09:48:14.590Z,4.90
2023-12-12T09:50:43.216Z,3.58
2023-12-12T09:53:11.928Z,3.50
2023-12-12T09:55:38.977Z,3.60
2023-12-12T09:58:05.910Z,3.50
2023-12-12T10:00:32.791Z,3.53
2023-12-12T10:03:00.780Z,3.90
2023-12-12T10:05:28.039Z,3.30
2023-12-12T10:08:00.983Z,4.00
2023-12-12T10:10:32.484Z,3.13
2023-12-12T10:12:59.545Z,3.00
2023-12-12T10:15:28.301Z,4.07
2023-12-12T10:17:59.699Z,3.47
2023-12-12T10:20:31.294Z,3.58
2023-12-12T10:23:00.619Z,3.42
2023-12-12T10:25:29.734Z,3.10
2023-12-12T10:27:57.910Z,3.42
2023-12-12T10:30:25.291Z,3.33
2023-12-12T10:32:54.444Z,3.60
2023-12-12T10:35:26.428Z,3.13
2023-12-12T10:37:53.879Z,3.17
2023-12-12T10:40:24.801Z,3.25
2023-12-12T10:42:52.755Z,2.97
2023-12-12T10:45:19.801Z,3.25
2023-12-12T10:47:48.457Z,2.42
2023-12-12T10:50:16.924Z,2.50
2023-12-12T10:52:45.417Z,2.65
2023-12-12T10:55:14.515Z,3.13
2023-12-12T10:57:46.611Z,3.65
2023-12-12T11:00:19.630Z,4.00
2023-12-12T11:02:49.330Z,3.25
2023-12-12T11:05:17.519Z,3.42
2023-12-12T11:07:45.816Z,2.70
2023-12-12T11:10:18.770Z,3.28
2023-12-12T11:12:59.405Z,3.55
2023-12-12T11:15:27.394Z,3.65
2023-12-12T11:17:54.604Z,3.90
2023-12-12T11:20:22.301Z,3.33
2023-12-12T11:22:51.662Z,3.40
2023-12-12T11:25:23.688Z,3.10
2023-12-12T11:27:53.219Z,3.20
2023-12-12T11:30:22.057Z,2.83
2023-12-12T11:32:49.059Z,3.43
2023-12-12T11:35:29.111Z,3.28
2023-12-12T11:37:56.876Z,3.05
2023-12-12T11:40:26.071Z,3.38
2023-12-12T11:42:53.288Z,2.15
2023-12-12T11:45:33.865Z,3.17
2023-12-12T11:48:01.891Z,3.05
2023-12-12T11:50:28.684Z,2.67
2023-12-12T11:52:55.561Z,3.67
2023-12-12T11:55:24.711Z,3.35
2023-12-12T11:57:58.150Z,3.07
2023-12-12T12:00:25.031Z,3.47
2023-12-12T12:02:51.940Z,3.50
2023-12-12T12:05:18.825Z,2.83
2023-12-12T12:07:45.948Z,2.55
2023-12-12T12:10:12.864Z,2.80
2023-12-12T12:12:39.786Z,2.70
2023-12-12T12:15:08.078Z,2.97
2023-12-12T12:17:38.603Z,2.45
2023-12-12T12:20:06.308Z,2.92
2023-12-12T12:22:39.096Z,3.00
2023-12-12T12:25:07.268Z,3.33
2023-12-12T12:27:48.011Z,2.95
2023-12-12T12:30:14.931Z,3.05
2023-12-12T12:32:56.997Z,2.63
2023-12-12T12:35:24.098Z,3.27
2023-12-12T12:37:50.964Z,2.45
2023-12-12T12:40:39.106Z,2.20
2023-12-12T12:43:16.340Z,2.35
2023-12-12T12:45:43.245Z,2.35
2023-12-12T12:48:10.493Z,2.63
2023-12-12T12:50:39.544Z,2.38
2023-12-12T12:53:06.392Z,2.55
2023-12-12T12:55:33.328Z,2.30
2023-12-12T12:58:00.316Z,2.70
2023-12-12T13:00:27.466Z,2.20
2023-12-12T13:02:55.371Z,2.78
2023-12-12T13:05:22.746Z,2.58
2023-12-12T13:07:49.725Z,1.98
2023-12-12T13:10:16.667Z,2.70
2023-12-12T13:12:44.089Z,2.23
2023-12-12T13:15:11.648Z,1.63
2023-12-12T13:17:39.404Z,2.58
2023-12-12T13:20:07.000Z,2.90
2023-12-12T13:22:34.132Z,2.22
2023-12-12T13:25:01.166Z,2.47
2023-12-12T13:27:27.979Z,2.72
2023-12-12T13:29:55.058Z,3.00
2023-12-12T13:32:21.897Z,3.28
2023-12-12T13:34:48.734Z,2.40
2023-12-12T13:37:15.731Z,2.23
2023-12-12T13:39:42.556Z,1.95
2023-12-12T13:42:09.432Z,2.10
2023-12-12T13:44:36.278Z,1.67
2023-12-12T13:47:03.074Z,2.03
2023-12-12T13:49:29.948Z,2.63
2023-12-12T13:51:56.802Z,1.60
2023-12-12T13:54:23.589Z,2.42
2023-12-12T13:56:50.448Z,2.17
2023-12-12T13:59:17.275Z,2.70
2023-12-12T14:01:44.107Z,2.40
2023-12-12T14:04:11.057Z,2.38
2023-12-12T14:06:37.936Z,2.60
2023-12-12T14:09:04.740Z,1.95
2023-12-12T14:11:31.566Z,3.53
2023-12-12T14:13:58.351Z,3.80
2023-12-12T14:16:28.457Z,2.20
2023-12-12T14:18:57.259Z,2.65
2023-12-12T14:21:24.510Z,2.80
2023-12-12T14:23:51.363Z,2.67
2023-12-12T14:26:18.972Z,2.70
2023-12-12T14:28:45.994Z,2.75
2023-12-12T14:31:12.852Z,2.40
2023-12-12T14:33:39.868Z,2.45
2023-12-12T14:36:07.404Z,2.33
2023-12-12T14:38:34.287Z,2.20
2023-12-12T14:41:01.111Z,2.45
2023-12-12T14:43:28.272Z,3.38
2023-12-12T14:45:55.599Z,2.50
2023-12-12T14:48:22.447Z,3.10
2023-12-12T14:50:49.317Z,2.50
2023-12-12T14:53:16.099Z,2.40
2023-12-12T14:55:42.951Z,3.20
2023-12-12T14:58:09.941Z,2.85
2023-12-12T15:00:37.337Z,2.95
2023-12-12T15:03:04.354Z,2.73
2023-12-12T15:05:31.275Z,2.88
2023-12-12T15:07:58.154Z,2.78
2023-12-12T15:10:25.076Z,3.08
2023-12-12T15:12:52.139Z,2.65
2023-12-12T15:15:19.028Z,3.53
2023-12-12T15:17:45.869Z,3.00
2023-12-12T15:20:13.147Z,2.20
2023-12-12T15:22:39.986Z,2.47
2023-12-12T15:25:07.087Z,2.50
2023-12-12T15:27:34.040Z,3.17
2023-12-12T15:30:00.843Z,3.28
2023-12-12T15:32:27.795Z,2.50
2023-12-12T15:34:54.842Z,3.53
2023-12-12T15:37:21.821Z,3.60
2023-12-12T15:39:48.613Z,4.13
2023-12-12T15:42:15.442Z,2.92
2023-12-12T15:44:42.242Z,3.13
2023-12-12T15:47:09.029Z,3.58
2023-12-12T15:49:36.664Z,3.47
2023-12-12T15:52:04.016Z,3.67
2023-12-12T15:54:30.843Z,3.65
2023-12-12T15:56:57.946Z,5.50
2023-12-12T15:59:24.724Z,3.75
2023-12-12T16:01:51.817Z,3.55
2023-12-12T16:04:18.924Z,3.93
2023-12-12T16:06:45.955Z,3.95
2023-12-12T16:09:12.753Z,3.30
2023-12-12T16:11:39.669Z,3.97
2023-12-12T16:14:06.513Z,3.53
2023-12-12T16:16:33.401Z,3.87
2023-12-12T16:19:00.364Z,5.32
2023-12-12T16:21:27.250Z,3.63
2023-12-12T16:23:54.069Z,3.78
2023-12-12T16:26:20.905Z,3.58
2023-12-12T16:28:47.762Z,4.07
2023-12-12T16:31:14.682Z,4.45
2023-12-12T16:33:41.659Z,4.55
2023-12-12T16:36:09.220Z,4.53
2023-12-12T16:38:36.303Z,4.18
2023-12-12T16:41:03.143Z,4.90
2023-12-12T16:43:29.945Z,4.68
2023-12-12T16:45:56.748Z,4.97
2023-12-12T16:48:23.639Z,5.28
2023-12-12T16:50:50.516Z,5.10
2023-12-12T16:53:17.332Z,4.17
2023-12-12T16:55:44.340Z,4.25
2023-12-12T16:58:11.169Z,5.13
2023-12-12T17:00:38.054Z,4.95
2023-12-12T17:03:05.339Z,5.18
2023-12-12T17:05:32.387Z,5.70
2023-12-12T17:07:59.545Z,4.72
2023-12-12T17:10:26.499Z,4.72
2023-12-12T17:12:53.321Z,5.13
2023-12-12T17:15:20.159Z,5.38
2023-12-12T17:17:47.004Z,4.27
2023-12-12T17:20:13.937Z,4.00
2023-12-12T17:22:41.042Z,4.38
2023-12-12T17:25:08.574Z,4.93
2023-12-12T17:27:35.885Z,4.95
2023-12-12T17:30:03.395Z,5.37
2023-12-12T17:32:30.317Z,5.03
2023-12-12T17:34:57.211Z,4.70
2023-12-12T17:37:24.150Z,5.32
2023-12-12T17:39:51.109Z,5.50
2023-12-12T17:42:17.910Z,4.87
2023-12-12T17:44:44.696Z,4.85
2023-12-12T17:47:11.541Z,5.03
2023-12-12T17:49:38.475Z,4.13
2023-12-12T17:52:05.661Z,4.80
2023-12-12T17:54:32.532Z,4.53
2023-12-12T17:56:59.365Z,4.72
2023-12-12T17:59:26.201Z,4.75
2023-12-12T18:01:53.118Z,4.68
2023-12-12T18:04:20.104Z,3.90
2023-12-12T18:06:46.979Z,4.53
2023-12-12T18:09:13.919Z,4.20
2023-12-12T18:11:40.686Z,4.00
2023-12-12T18:14:07.479Z,4.28
2023-12-12T18:16:34.619Z,4.43
2023-12-12T18:19:01.508Z,4.10
2023-12-12T18:21:28.329Z,4.68
2023-12-12T18:23:55.297Z,4.13
2023-12-12T18:26:22.138Z,4.78
2023-12-12T18:28:48.994Z,5.13
2023-12-12T18:31:16.046Z,4.57
2023-12-12T18:33:43.218Z,4.50
2023-12-12T18:36:11.024Z,4.95
2023-12-12T18:38:37.931Z,5.00
2023-12-12T18:41:07.386Z,4.57
2023-12-12T18:43:34.242Z,4.60
2023-12-12T18:46:01.128Z,4.60
2023-12-12T18:48:27.989Z,4.72
2023-12-12T18:50:54.974Z,4.30
2023-12-12T18:53:21.806Z,5.00
2023-12-12T18:55:48.811Z,4.40
2023-12-12T18:58:15.778Z,4.20
2023-12-12T19:00:42.649Z,4.45
2023-12-12T19:03:09.516Z,4.72
2023-12-12T19:05:36.553Z,4.28
2023-12-12T19:08:03.443Z,4.33
2023-12-12T19:10:30.308Z,4.43
2023-12-12T19:12:57.391Z,4.05
2023-12-12T19:15:24.216Z,5.18
2023-12-12T19:17:51.729Z,4.43
2023-12-12T19:20:18.575Z,4.63
2023-12-12T19:22:46.019Z,4.80
2023-12-12T19:25:13.001Z,4.95
2023-12-12T19:27:39.808Z,5.03
2023-12-12T19:30:11.113Z,4.85
2023-12-12T19:32:38.213Z,4.20
2023-12-12T19:35:05.813Z,5.05
2023-12-12T19:37:32.917Z,4.05
2023-12-12T19:40:00.513Z,4.82
2023-12-12T19:42:27.448Z,4.47
2023-12-12T19:44:54.832Z,5.03
2023-12-12T19:47:21.610Z,4.25
2023-12-12T19:49:48.407Z,4.43
2023-12-12T19:52:15.301Z,4.95
2023-12-12T19:54:42.190Z,4.47
2023-12-12T19:57:10.275Z,3.87
2023-12-12T19:59:38.141Z,4.60
2023-12-12T20:02:05.123Z,4.85
2023-12-12T20:04:32.304Z,4.68
2023-12-12T20:06:59.383Z,4.70
2023-12-12T20:09:26.626Z,4.93
2023-12-12T20:11:53.677Z,4.78
2023-12-12T20:14:22.788Z,4.22
2023-12-12T20:16:50.082Z,4.63
2023-12-12T20:19:17.187Z,3.70
2023-12-12T20:21:44.400Z,4.47
2023-12-12T20:24:11.317Z,3.90
2023-12-12T20:26:43.602Z,4.90
2023-12-12T20:29:11.191Z,4.43
2023-12-12T20:31:38.013Z,5.30
2023-12-12T20:34:05.514Z,5.53
2023-12-12T20:36:33.004Z,6.45
2023-12-12T20:39:00.161Z,5.55
2023-12-12T20:41:27.365Z,6.05
2023-12-12T20:43:54.561Z,5.20
2023-12-12T20:46:21.685Z,5.00
2023-12-12T20:48:49.011Z,4.10
2023-12-12T20:51:16.249Z,4.60
2023-12-12T20:53:43.076Z,4.45
2023-12-12T20:56:10.166Z,4.68
2023-12-12T20:58:37.749Z,4.47
2023-12-12T21:01:07.616Z,4.60
2023-12-12T21:03:34.533Z,3.55
2023-12-12T21:06:01.582Z,3.90
2023-12-12T21:08:28.723Z,3.90
2023-12-12T21:10:55.902Z,3.70
2023-12-12T21:13:23.115Z,4.10
2023-12-12T21:15:50.189Z,4.22
2023-12-12T21:18:18.326Z,4.32
2023-12-12T21:20:45.577Z,5.10
2023-12-12T21:23:13.492Z,5.77
2023-12-12T21:25:40.429Z,3.97
2023-12-12T21:28:07.780Z,4.97
2023-12-12T21:30:35.052Z,5.00
2023-12-12T21:33:05.196Z,4.57
2023-12-12T21:35:32.553Z,4.30
2023-12-12T21:37:59.847Z,4.18
2023-12-12T21:40:28.843Z,4.30
2023-12-12T21:42:56.162Z,4.13
2023-12-12T21:45:23.358Z,4.00
2023-12-12T21:47:52.492Z,4.40
2023-12-12T21:50:20.565Z,11.50
2023-12-12T21:52:47.631Z,6.43
2023-12-12T21:55:15.058Z,3.35
2023-12-12T21:57:42.275Z,4.13
2023-12-12T22:00:09.460Z,3.70
2023-12-12T22:02:36.297Z,4.10
2023-12-12T22:05:03.189Z,2.75
2023-12-12T22:07:30.221Z,3.95
2023-12-12T22:09:57.200Z,3.58
2023-12-12T22:12:24.209Z,3.50
2023-12-12T22:14:51.035Z,4.30
2023-12-12T22:17:17.859Z,3.95
2023-12-12T22:19:54.745Z,4.53
2023-12-12T22:22:29.317Z,3.50
2023-12-12T22:24:56.186Z,3.23
2023-12-12T22:27:22.986Z,3.70
2023-12-12T22:29:49.826Z,3.92
2023-12-12T22:32:16.645Z,4.18
2023-12-12T22:34:43.504Z,3.83
2023-12-12T22:37:10.391Z,3.70
2023-12-12T22:39:37.228Z,3.85
2023-12-12T22:42:04.266Z,3.35
2023-12-12T22:44:31.256Z,3.22
2023-12-12T22:46:58.102Z,3.90
2023-12-12T22:49:24.987Z,3.53
2023-12-12T22:51:52.229Z,4.43
2023-12-12T22:54:19.262Z,3.25
2023-12-12T22:56:46.937Z,2.35
2023-12-12T22:59:13.813Z,1.83
2023-12-12T23:01:44.121Z,2.80
2023-12-12T23:04:11.219Z,1.55
2023-12-12T23:06:38.250Z,0.93
2023-12-12T23:09:05.072Z,2.15
2023-12-12T23:11:31.885Z,2.03
2023-12-12T23:13:58.757Z,2.50
2023-12-12T23:16:25.573Z,2.38
2023-12-12T23:18:52.479Z,2.08
2023-12-12T23:21:19.378Z,2.47
2023-12-12T23:23:46.224Z,2.22
2023-12-12T23:26:13.054Z,3.03
2023-12-12T23:28:39.907Z,2.38
2023-12-12T23:31:08.594Z,2.92
2023-12-12T23:33:37.477Z,2.67
2023-12-12T23:36:04.668Z,2.72
2023-12-12T23:38:31.493Z,2.40
2023-12-12T23:40:58.366Z,2.00
2023-12-12T23:43:25.403Z,1.60
2023-12-12T23:45:52.270Z,1.55
2023-12-12T23:48:19.618Z,2.70
2023-12-12T23:50:46.659Z,1.90
2023-12-12T23:53:13.466Z,1.65
2023-12-12T23:55:40.430Z,1.65
2023-12-12T23:58:07.731Z,1.13
